sensor_id;sensor_type;location;lat;lon;timestamp;pressure;altitude;pressure_sealevel;temperature;humidity
55418;BME280;41287;47.554;7.844;2023-01-25T00:01:33;99418.53;;;16.45;66.51
55418;BME280;41287;47.554;7.844;2023-01-25T00:03:59;99422.34;;;16.44;66.57
55418;BME280;41287;47.554;7.844;2023-01-25T00:06:24;99418.53;;;16.45;66.66
55418;BME280;41287;47.554;7.844;2023-01-25T00:08:50;99416.63;;;16.45;66.57
55418;BME280;41287;47.554;7.844;2023-01-25T00:11:15;99412.34;;;16.44;66.58
55418;BME280;41287;47.554;7.844;2023-01-25T00:13:42;99414.75;;;16.46;66.63
55418;BME280;41287;47.554;7.844;2023-01-25T00:16:08;99411.22;;;16.45;66.70
55418;BME280;41287;47.554;7.844;2023-01-25T00:18:35;99405.81;;;16.45;66.71
55418;BME280;41287;47.554;7.844;2023-01-25T00:21:18;99400.41;;;16.45;66.55
55418;BME280;41287;47.554;7.844;2023-01-25T00:23:44;99410.13;;;16.46;66.46
55418;BME280;41287;47.554;7.844;2023-01-25T00:26:09;99400.94;;;16.47;66.51
55418;BME280;41287;47.554;7.844;2023-01-25T00:28:36;99402.03;;;16.46;66.54
55418;BME280;41287;47.554;7.844;2023-01-25T00:31:03;99404.72;;;16.46;66.60
55418;BME280;41287;47.554;7.844;2023-01-25T00:33:49;99393.09;;;16.46;66.69
55418;BME280;41287;47.554;7.844;2023-01-25T00:38:57;99384.69;;;16.47;66.68
55418;BME280;41287;47.554;7.844;2023-01-25T00:41:23;99381.19;;;16.47;66.48
55418;BME280;41287;47.554;7.844;2023-01-25T00:43:48;99378.47;;;16.47;66.63
55418;BME280;41287;47.554;7.844;2023-01-25T00:46:15;99375.78;;;16.47;66.70
55418;BME280;41287;47.554;7.844;2023-01-25T00:48:41;99374.97;;;16.46;66.52
55418;BME280;41287;47.554;7.844;2023-01-25T00:51:06;99379.28;;;16.47;66.59
55418;BME280;41287;47.554;7.844;2023-01-25T00:53:32;99384.69;;;16.47;66.55
55418;BME280;41287;47.554;7.844;2023-01-25T00:55:58;99382.81;;;16.48;66.55
55418;BME280;41287;47.554;7.844;2023-01-25T00:58:23;99377.41;;;16.48;66.84
55418;BME280;41287;47.554;7.844;2023-01-25T01:00:48;99373.59;;;16.49;66.54
55418;BME280;41287;47.554;7.844;2023-01-25T01:03:14;99383.63;;;16.48;66.62
55418;BME280;41287;47.554;7.844;2023-01-25T01:05:40;99382.81;;;16.48;66.63
55418;BME280;41287;47.554;7.844;2023-01-25T01:08:05;99371.97;;;16.48;66.59
55418;BME280;41287;47.554;7.844;2023-01-25T01:10:30;99371.69;;;16.49;66.54
55418;BME280;41287;47.554;7.844;2023-01-25T01:12:57;99377.09;;;16.49;66.68
55418;BME280;41287;47.554;7.844;2023-01-25T01:15:24;99371.69;;;16.49;66.49
55418;BME280;41287;47.554;7.844;2023-01-25T01:17:50;99384.41;;;16.49;66.58
55418;BME280;41287;47.554;7.844;2023-01-25T01:20:15;99372.50;;;16.50;66.71
55418;BME280;41287;47.554;7.844;2023-01-25T01:22:40;99374.41;;;16.49;66.67
55418;BME280;41287;47.554;7.844;2023-01-25T01:25:08;99367.09;;;16.50;66.65
55418;BME280;41287;47.554;7.844;2023-01-25T01:27:35;99363.59;;;16.49;66.66
55418;BME280;41287;47.554;7.844;2023-01-25T01:30:00;99366.28;;;16.49;66.56
55418;BME280;41287;47.554;7.844;2023-01-25T01:32:25;99371.69;;;16.49;66.48
55418;BME280;41287;47.554;7.844;2023-01-25T01:34:50;99365.47;;;16.49;66.76
55418;BME280;41287;47.554;7.844;2023-01-25T01:37:16;99374.41;;;16.49;66.49
55418;BME280;41287;47.554;7.844;2023-01-25T01:39:41;99364.41;;;16.50;66.50
55418;BME280;41287;47.554;7.844;2023-01-25T01:42:06;99350.88;;;16.50;66.51
55418;BME280;41287;47.554;7.844;2023-01-25T01:45:41;99350.06;;;16.49;66.65
55418;BME280;41287;47.554;7.844;2023-01-25T01:47:49;99353.56;;;16.50;66.60
55418;BME280;41287;47.554;7.844;2023-01-25T01:50:20;99356.28;;;16.50;66.64
55418;BME280;41287;47.554;7.844;2023-01-25T01:52:47;99356.28;;;16.50;66.59
55418;BME280;41287;47.554;7.844;2023-01-25T01:55:15;99360.88;;;16.49;66.76
55418;BME280;41287;47.554;7.844;2023-01-25T01:57:52;99351.94;;;16.49;66.68
55418;BME280;41287;47.554;7.844;2023-01-25T02:00:24;99349.25;;;16.49;66.55
55418;BME280;41287;47.554;7.844;2023-01-25T02:02:50;99358.19;;;16.49;66.75
55418;BME280;41287;47.554;7.844;2023-01-25T02:05:19;99350.06;;;16.49;66.61
55418;BME280;41287;47.554;7.844;2023-01-25T02:07:48;99355.47;;;16.49;66.65
55418;BME280;41287;47.554;7.844;2023-01-25T02:10:15;99358.19;;;16.49;66.69
55418;BME280;41287;47.554;7.844;2023-01-25T02:12:41;99360.06;;;16.49;66.59
55418;BME280;41287;47.554;7.844;2023-01-25T02:15:08;99355.47;;;16.49;66.71
55418;BME280;41287;47.554;7.844;2023-01-25T02:17:36;99352.75;;;16.49;66.57
55418;BME280;41287;47.554;7.844;2023-01-25T02:25:35;99350.88;;;16.50;66.61
55418;BME280;41287;47.554;7.844;2023-01-25T02:30:32;99347.34;;;16.49;66.51
55418;BME280;41287;47.554;7.844;2023-01-25T02:33:00;99352.75;;;16.49;66.72
55418;BME280;41287;47.554;7.844;2023-01-25T02:35:44;99352.22;;;16.47;66.66
55418;BME280;41287;47.554;7.844;2023-01-25T02:38:12;99348.44;;;16.48;66.55
55418;BME280;41287;47.554;7.844;2023-01-25T02:41:12;99344.94;;;16.48;66.56
55418;BME280;41287;47.554;7.844;2023-01-25T02:43:41;99336.53;;;16.49;66.61
55418;BME280;41287;47.554;7.844;2023-01-25T02:48:47;99322.19;;;16.49;66.53
55418;BME280;41287;47.554;7.844;2023-01-25T02:51:13;99326.00;;;16.48;66.73
55418;BME280;41287;47.554;7.844;2023-01-25T02:53:39;99322.19;;;16.49;66.62
55418;BME280;41287;47.554;7.844;2023-01-25T02:56:04;99324.09;;;16.48;66.75
55418;BME280;41287;47.554;7.844;2023-01-25T02:58:30;99318.69;;;16.48;66.70
55418;BME280;41287;47.554;7.844;2023-01-25T03:00:56;99326.78;;;16.48;66.58
55418;BME280;41287;47.554;7.844;2023-01-25T03:03:22;99324.09;;;16.48;66.73
55418;BME280;41287;47.554;7.844;2023-01-25T03:05:47;99327.59;;;16.49;66.74
55418;BME280;41287;47.554;7.844;2023-01-25T03:08:12;99333.03;;;16.49;66.69
55418;BME280;41287;47.554;7.844;2023-01-25T03:10:38;99326.78;;;16.48;66.70
55418;BME280;41287;47.554;7.844;2023-01-25T03:13:03;99324.09;;;16.48;66.63
55418;BME280;41287;47.554;7.844;2023-01-25T03:15:28;99326.78;;;16.48;66.73
55418;BME280;41287;47.554;7.844;2023-01-25T03:17:55;99320.59;;;16.48;66.59
55418;BME280;41287;47.554;7.844;2023-01-25T03:20:21;99323.28;;;16.48;66.53
55418;BME280;41287;47.554;7.844;2023-01-25T03:22:46;99324.91;;;16.49;66.60
55418;BME280;41287;47.554;7.844;2023-01-25T03:25:11;99315.97;;;16.48;66.58
55418;BME280;41287;47.554;7.844;2023-01-25T03:27:37;99320.59;;;16.48;66.58
55418;BME280;41287;47.554;7.844;2023-01-25T03:30:02;99311.66;;;16.47;66.48
55418;BME280;41287;47.554;7.844;2023-01-25T03:32:28;99310.56;;;16.48;66.60
55418;BME280;41287;47.554;7.844;2023-01-25T03:34:53;99315.97;;;16.48;66.51
55418;BME280;41287;47.554;7.844;2023-01-25T03:37:19;99315.16;;;16.48;66.82
55418;BME280;41287;47.554;7.844;2023-01-25T03:39:44;99311.66;;;16.47;66.86
55418;BME280;41287;47.554;7.844;2023-01-25T03:42:09;99308.94;;;16.47;66.77
55418;BME280;41287;47.554;7.844;2023-01-25T03:44:35;99304.63;;;16.46;66.73
55418;BME280;41287;47.554;7.844;2023-01-25T03:47:00;99309.75;;;16.48;66.56
55418;BME280;41287;47.554;7.844;2023-01-25T03:49:26;99302.72;;;16.47;66.72
55418;BME280;41287;47.554;7.844;2023-01-25T03:51:52;99305.16;;;16.48;66.60
55418;BME280;41287;47.554;7.844;2023-01-25T03:54:17;99303.53;;;16.47;66.51
55418;BME280;41287;47.554;7.844;2023-01-25T03:56:42;99304.63;;;16.46;66.79
55418;BME280;41287;47.554;7.844;2023-01-25T03:59:09;99302.72;;;16.47;66.61
55418;BME280;41287;47.554;7.844;2023-01-25T04:01:34;99304.34;;;16.48;66.62
55418;BME280;41287;47.554;7.844;2023-01-25T04:04:00;99301.94;;;16.46;66.57
55418;BME280;41287;47.554;7.844;2023-01-25T04:06:25;99297.31;;;16.47;66.49
55418;BME280;41287;47.554;7.844;2023-01-25T04:08:52;99300.03;;;16.47;66.74
55418;BME280;41287;47.554;7.844;2023-01-25T04:11:19;99299.75;;;16.48;66.65
55418;BME280;41287;47.554;7.844;2023-01-25T04:13:45;99286.50;;;16.47;66.62
55418;BME280;41287;47.554;7.844;2023-01-25T04:16:10;99287.31;;;16.47;66.67
55418;BME280;41287;47.554;7.844;2023-01-25T04:18:38;99286.50;;;16.47;66.85
55418;BME280;41287;47.554;7.844;2023-01-25T04:21:04;99279.19;;;16.47;66.67
55418;BME280;41287;47.554;7.844;2023-01-25T04:23:30;99279.19;;;16.47;66.67
55418;BME280;41287;47.554;7.844;2023-01-25T04:28:22;99271.06;;;16.47;66.56
55418;BME280;41287;47.554;7.844;2023-01-25T04:30:47;99274.06;;;16.46;66.79
55418;BME280;41287;47.554;7.844;2023-01-25T04:33:13;99272.97;;;16.47;66.77
55418;BME280;41287;47.554;7.844;2023-01-25T04:35:40;99273.78;;;16.47;66.96
55418;BME280;41287;47.554;7.844;2023-01-25T04:38:05;99265.94;;;16.46;66.78
55418;BME280;41287;47.554;7.844;2023-01-25T04:40:31;99264.84;;;16.47;66.74
55418;BME280;41287;47.554;7.844;2023-01-25T04:42:57;99272.97;;;16.47;66.63
55418;BME280;41287;47.554;7.844;2023-01-25T04:45:23;99267.56;;;16.47;66.63
55418;BME280;41287;47.554;7.844;2023-01-25T04:47:54;99264.06;;;16.46;66.61
55418;BME280;41287;47.554;7.844;2023-01-25T04:50:20;99259.44;;;16.47;66.64
55418;BME280;41287;47.554;7.844;2023-01-25T04:52:46;99255.94;;;16.46;66.93
55418;BME280;41287;47.554;7.844;2023-01-25T04:55:11;99258.63;;;16.46;66.70
55418;BME280;41287;47.554;7.844;2023-01-25T04:57:36;99262.44;;;16.45;66.72
55418;BME280;41287;47.554;7.844;2023-01-25T05:00:02;99257.84;;;16.46;66.49
55418;BME280;41287;47.554;7.844;2023-01-25T05:02:28;99261.34;;;16.46;66.65
55418;BME280;41287;47.554;7.844;2023-01-25T05:04:53;99257.84;;;16.46;66.72
55418;BME280;41287;47.554;7.844;2023-01-25T05:07:19;99262.16;;;16.47;66.54
55418;BME280;41287;47.554;7.844;2023-01-25T05:09:44;99257.84;;;16.46;66.85
55418;BME280;41287;47.554;7.844;2023-01-25T05:12:09;99253.22;;;16.46;66.67
55418;BME280;41287;47.554;7.844;2023-01-25T05:14:38;99262.38;;;16.50;67.14
55418;BME280;41287;47.554;7.844;2023-01-25T05:17:07;99255.28;;;16.54;67.08
55418;BME280;41287;47.554;7.844;2023-01-25T05:19:32;99262.84;;;16.57;67.45
55418;BME280;41287;47.554;7.844;2023-01-25T05:21:59;99261.19;;;16.62;67.72
55418;BME280;41287;47.554;7.844;2023-01-25T05:24:25;99273.03;;;16.66;68.47
55418;BME280;41287;47.554;7.844;2023-01-25T05:26:51;99262.44;;;16.69;69.25
55418;BME280;41287;47.554;7.844;2023-01-25T05:29:29;99266.16;;;16.73;69.99
55418;BME280;41287;47.554;7.844;2023-01-25T05:31:55;99277.22;;;16.77;70.84
55418;BME280;41287;47.554;7.844;2023-01-25T05:34:22;99268.50;;;16.80;71.88
55418;BME280;41287;47.554;7.844;2023-01-25T05:36:50;99267.91;;;16.83;72.70
55418;BME280;41287;47.554;7.844;2023-01-25T05:39:16;99265.72;;;16.85;73.62
55418;BME280;41287;47.554;7.844;2023-01-25T05:41:42;99275.69;;;16.89;74.39
55418;BME280;41287;47.554;7.844;2023-01-25T05:44:09;99277.78;;;16.92;74.31
55418;BME280;41287;47.554;7.844;2023-01-25T05:46:36;99282.09;;;16.93;73.99
55418;BME280;41287;47.554;7.844;2023-01-25T05:49:02;99275.38;;;16.91;72.89
55418;BME280;41287;47.554;7.844;2023-01-25T05:51:27;99270.25;;;16.89;73.02
55418;BME280;41287;47.554;7.844;2023-01-25T05:53:54;99271.34;;;16.88;73.64
55418;BME280;41287;47.554;7.844;2023-01-25T05:56:20;99272.44;;;16.87;73.95
55418;BME280;41287;47.554;7.844;2023-01-25T05:58:45;99262.72;;;16.86;72.82
55418;BME280;41287;47.554;7.844;2023-01-25T06:01:11;99265.72;;;16.85;74.27
55418;BME280;41287;47.554;7.844;2023-01-25T06:03:36;99269.25;;;16.85;74.65
55418;BME280;41287;47.554;7.844;2023-01-25T06:06:02;99270.84;;;16.86;73.87
55418;BME280;41287;47.554;7.844;2023-01-25T06:08:30;99262.50;;;16.83;73.42
55418;BME280;41287;47.554;7.844;2023-01-25T06:10:55;99262.50;;;16.83;73.99
55418;BME280;41287;47.554;7.844;2023-01-25T06:13:21;99266.31;;;16.82;73.81
55418;BME280;41287;47.554;7.844;2023-01-25T06:15:51;99266.88;;;16.79;73.95
55418;BME280;41287;47.554;7.844;2023-01-25T06:18:17;99261.19;;;16.80;75.74
55418;BME280;41287;47.554;7.844;2023-01-25T06:20:43;99261.19;;;16.80;74.54
55418;BME280;41287;47.554;7.844;2023-01-25T06:23:08;99257.66;;;16.80;74.98
55418;BME280;41287;47.554;7.844;2023-01-25T06:25:33;99256.56;;;16.81;74.45
55418;BME280;41287;47.554;7.844;2023-01-25T06:27:59;99257.38;;;16.63;66.10
55418;BME280;41287;47.554;7.844;2023-01-25T06:30:24;99246.06;;;16.37;61.92
55418;BME280;41287;47.554;7.844;2023-01-25T06:32:51;99252.53;;;16.17;59.19
55418;BME280;41287;47.554;7.844;2023-01-25T06:35:18;99245.91;;;16.04;56.88
55418;BME280;41287;47.554;7.844;2023-01-25T06:37:43;99247.53;;;15.82;54.75
55418;BME280;41287;47.554;7.844;2023-01-25T06:40:11;99238.88;;;15.51;53.68
55418;BME280;41287;47.554;7.844;2023-01-25T06:42:36;99237.13;;;15.36;51.76
55418;BME280;41287;47.554;7.844;2023-01-25T06:45:01;99241.34;;;15.18;51.06
55418;BME280;41287;47.554;7.844;2023-01-25T06:47:27;99240.09;;;15.06;51.50
55418;BME280;41287;47.554;7.844;2023-01-25T06:49:54;99245.22;;;15.07;52.89
55418;BME280;41287;47.554;7.844;2023-01-25T06:52:19;99237.59;;;15.14;53.37
55418;BME280;41287;47.554;7.844;2023-01-25T06:54:51;99240.19;;;15.24;54.30
55418;BME280;41287;47.554;7.844;2023-01-25T06:57:16;99237.13;;;15.36;54.60
55418;BME280;41287;47.554;7.844;2023-01-25T06:59:41;99241.91;;;15.44;55.01
55418;BME280;41287;47.554;7.844;2023-01-25T07:02:13;99235.91;;;15.52;55.23
55418;BME280;41287;47.554;7.844;2023-01-25T07:04:38;99241.81;;;15.59;55.27
55418;BME280;41287;47.554;7.844;2023-01-25T07:07:06;99239.56;;;15.66;55.58
55418;BME280;41287;47.554;7.844;2023-01-25T07:09:32;99234.09;;;15.71;55.61
55418;BME280;41287;47.554;7.844;2023-01-25T07:11:57;99238.69;;;15.76;55.84
55418;BME280;41287;47.554;7.844;2023-01-25T07:14:22;99237.81;;;15.80;55.83
55418;BME280;41287;47.554;7.844;2023-01-25T07:16:48;99236.13;;;15.85;55.82
55418;BME280;41287;47.554;7.844;2023-01-25T07:19:13;99229.06;;;15.89;55.83
55418;BME280;41287;47.554;7.844;2023-01-25T07:21:40;99227.69;;;15.91;55.88
55418;BME280;41287;47.554;7.844;2023-01-25T07:24:13;99223.59;;;15.94;55.89
55418;BME280;41287;47.554;7.844;2023-01-25T07:26:39;99218.41;;;15.97;55.91
55418;BME280;41287;47.554;7.844;2023-01-25T07:29:05;99222.44;;;16.00;55.88
55418;BME280;41287;47.554;7.844;2023-01-25T07:31:30;99220.28;;;16.02;55.92
55418;BME280;41287;47.554;7.844;2023-01-25T07:33:57;99213.47;;;16.04;56.12
55418;BME280;41287;47.554;7.844;2023-01-25T07:36:23;99216.69;;;16.06;55.99
55418;BME280;41287;47.554;7.844;2023-01-25T07:38:52;99221.53;;;16.09;55.97
55418;BME280;41287;47.554;7.844;2023-01-25T07:41:17;99223.13;;;16.10;56.15
55418;BME280;41287;47.554;7.844;2023-01-25T07:43:44;99230.66;;;16.13;55.90
55418;BME280;41287;47.554;7.844;2023-01-25T07:46:11;99224.97;;;16.15;56.08
55418;BME280;41287;47.554;7.844;2023-01-25T07:48:37;99218.47;;;16.16;55.96
55418;BME280;41287;47.554;7.844;2023-01-25T07:51:05;99226.28;;;16.17;56.02
55418;BME280;41287;47.554;7.844;2023-01-25T07:53:40;99221.38;;;16.19;55.92
55418;BME280;41287;47.554;7.844;2023-01-25T07:56:07;99225.44;;;16.22;56.02
55418;BME280;41287;47.554;7.844;2023-01-25T07:58:35;99223.22;;;16.24;56.07
55418;BME280;41287;47.554;7.844;2023-01-25T08:01:12;99225.91;;;16.24;55.81
55418;BME280;41287;47.554;7.844;2023-01-25T08:03:38;99228.06;;;16.27;56.14
55418;BME280;41287;47.554;7.844;2023-01-25T08:06:04;99229.66;;;16.28;56.25
55418;BME280;41287;47.554;7.844;2023-01-25T08:08:34;99234.81;;;16.30;56.09
55418;BME280;41287;47.554;7.844;2023-01-25T08:11:19;99231.78;;;16.31;55.95
55418;BME280;41287;47.554;7.844;2023-01-25T08:13:45;99226.91;;;16.33;56.18
55418;BME280;41287;47.554;7.844;2023-01-25T08:16:13;99226.63;;;16.35;56.30
55418;BME280;41287;47.554;7.844;2023-01-25T08:18:38;99230.94;;;16.36;56.60
55418;BME280;41287;47.554;7.844;2023-01-25T08:21:04;99223.63;;;16.36;56.63
55418;BME280;41287;47.554;7.844;2023-01-25T08:23:29;99225.28;;;16.32;57.29
55418;BME280;41287;47.554;7.844;2023-01-25T08:25:54;99225.34;;;16.27;58.16
55418;BME280;41287;47.554;7.844;2023-01-25T08:28:21;99215.69;;;16.21;59.09
55418;BME280;41287;47.554;7.844;2023-01-25T08:30:46;99215.47;;;16.17;58.73
55418;BME280;41287;47.554;7.844;2023-01-25T08:33:14;99215.19;;;16.19;57.66
55418;BME280;41287;47.554;7.844;2023-01-25T08:35:39;99213.00;;;16.21;57.22
55418;BME280;41287;47.554;7.844;2023-01-25T08:38:05;99216.72;;;16.25;57.00
55418;BME280;41287;47.554;7.844;2023-01-25T08:40:30;99212.34;;;16.29;56.61
55418;BME280;41287;47.554;7.844;2023-01-25T08:42:55;99202.03;;;16.31;56.55
55418;BME280;41287;47.554;7.844;2023-01-25T08:45:21;99207.69;;;16.35;56.21
55418;BME280;41287;47.554;7.844;2023-01-25T08:47:46;99202.47;;;16.38;56.00
55418;BME280;41287;47.554;7.844;2023-01-25T08:50:11;99200.28;;;16.40;56.15
55418;BME280;41287;47.554;7.844;2023-01-25T08:52:37;99202.44;;;16.43;56.02
55418;BME280;41287;47.554;7.844;2023-01-25T08:55:05;99200.22;;;16.45;55.73
55418;BME280;41287;47.554;7.844;2023-01-25T08:57:30;99201.53;;;16.48;55.84
55418;BME280;41287;47.554;7.844;2023-01-25T08:59:55;99202.06;;;16.50;55.62
55418;BME280;41287;47.554;7.844;2023-01-25T09:02:21;99192.84;;;16.51;55.64
55418;BME280;41287;47.554;7.844;2023-01-25T09:04:46;99184.13;;;16.54;55.50
55418;BME280;41287;47.554;7.844;2023-01-25T09:07:11;99195.47;;;16.56;55.62
55418;BME280;41287;47.554;7.844;2023-01-25T09:09:36;99196.00;;;16.58;55.45
55418;BME280;41287;47.554;7.844;2023-01-25T09:12:02;99190.28;;;16.59;55.24
55418;BME280;41287;47.554;7.844;2023-01-25T09:14:27;99192.72;;;16.61;55.17
55418;BME280;41287;47.554;7.844;2023-01-25T09:16:53;99195.94;;;16.63;55.05
55418;BME280;41287;47.554;7.844;2023-01-25T09:19:20;99191.34;;;16.64;55.07
55418;BME280;41287;47.554;7.844;2023-01-25T09:21:46;99187.22;;;16.66;55.11
55418;BME280;41287;47.554;7.844;2023-01-25T09:24:12;99186.94;;;16.68;55.03
55418;BME280;41287;47.554;7.844;2023-01-25T09:26:40;99184.75;;;16.70;54.84
55418;BME280;41287;47.554;7.844;2023-01-25T09:29:06;99178.25;;;16.71;54.84
55418;BME280;41287;47.554;7.844;2023-01-25T09:31:32;99185.28;;;16.72;54.82
55418;BME280;41287;47.554;7.844;2023-01-25T09:33:58;99187.66;;;16.73;54.71
55418;BME280;41287;47.554;7.844;2023-01-25T09:36:23;99184.97;;;16.73;54.60
55418;BME280;41287;47.554;7.844;2023-01-25T09:38:49;99181.16;;;16.74;54.54
55418;BME280;41287;47.554;7.844;2023-01-25T09:46:45;99190.31;;;16.78;54.24
55418;BME280;41287;47.554;7.844;2023-01-25T09:52:37;99190.81;;;16.80;54.38
55418;BME280;41287;47.554;7.844;2023-01-25T09:55:15;99186.72;;;16.83;54.32
55418;BME280;41287;47.554;7.844;2023-01-25T09:57:44;99184.00;;;16.83;54.45
55418;BME280;41287;47.554;7.844;2023-01-25T10:00:18;99187.22;;;16.85;54.21
55418;BME280;41287;47.554;7.844;2023-01-25T10:02:53;99181.81;;;16.85;54.28
55418;BME280;41287;47.554;7.844;2023-01-25T10:05:26;99175.28;;;16.86;54.27
55418;BME280;41287;47.554;7.844;2023-01-25T10:08:10;99173.38;;;16.86;54.26
55418;BME280;41287;47.554;7.844;2023-01-25T10:10:40;99170.38;;;16.88;54.35
55418;BME280;41287;47.554;7.844;2023-01-25T10:13:12;99163.06;;;16.88;54.42
55418;BME280;41287;47.554;7.844;2023-01-25T10:16:02;99173.59;;;16.90;54.16
55418;BME280;41287;47.554;7.844;2023-01-25T10:21:19;99162.50;;;16.91;54.11
55418;BME280;41287;47.554;7.844;2023-01-25T10:27:01;99161.06;;;16.94;53.60
55418;BME280;41287;47.554;7.844;2023-01-25T10:29:30;99149.97;;;16.95;54.03
55418;BME280;41287;47.554;7.844;2023-01-25T10:32:18;99140.75;;;16.96;53.98
55418;BME280;41287;47.554;7.844;2023-01-25T10:34:48;99132.63;;;16.96;53.85
55418;BME280;41287;47.554;7.844;2023-01-25T10:37:22;99140.44;;;16.98;53.89
55418;BME280;41287;47.554;7.844;2023-01-25T10:40:03;99130.44;;;16.98;53.68
55418;BME280;41287;47.554;7.844;2023-01-25T10:42:37;99125.00;;;16.98;53.79
55418;BME280;41287;47.554;7.844;2023-01-25T10:45:13;99123.88;;;16.99;53.77
55418;BME280;41287;47.554;7.844;2023-01-25T10:47:47;99121.97;;;17.00;53.52
55418;BME280;41287;47.554;7.844;2023-01-25T10:53:32;99117.09;;;17.02;53.46
55418;BME280;41287;47.554;7.844;2023-01-25T10:56:20;99116.00;;;17.03;53.52
55418;BME280;41287;47.554;7.844;2023-01-25T10:58:49;99109.47;;;17.04;53.55
55418;BME280;41287;47.554;7.844;2023-01-25T11:01:27;99104.88;;;17.05;53.63
55418;BME280;41287;47.554;7.844;2023-01-25T11:03:55;99075.88;;;17.05;53.50
55418;BME280;41287;47.554;7.844;2023-01-25T11:06:34;99069.34;;;17.06;53.46
55418;BME280;41287;47.554;7.844;2023-01-25T11:09:46;99066.63;;;17.06;53.52
55418;BME280;41287;47.554;7.844;2023-01-25T11:11:57;99071.75;;;17.08;53.29
55418;BME280;41287;47.554;7.844;2023-01-25T11:14:24;99091.22;;;17.10;53.39
55418;BME280;41287;47.554;7.844;2023-01-25T11:16:54;99089.31;;;17.10;53.26
55418;BME280;41287;47.554;7.844;2023-01-25T11:19:32;99083.91;;;17.10;53.18
55418;BME280;41287;47.554;7.844;2023-01-25T11:21:58;99075.50;;;17.12;53.16
55418;BME280;41287;47.554;7.844;2023-01-25T11:24:32;99074.69;;;17.11;53.18
55418;BME280;41287;47.554;7.844;2023-01-25T11:27:15;99066.56;;;17.11;53.00
55418;BME280;41287;47.554;7.844;2023-01-25T11:29:42;99072.47;;;17.13;53.13
55418;BME280;41287;47.554;7.844;2023-01-25T11:32:15;99067.03;;;17.13;53.10
55418;BME280;41287;47.554;7.844;2023-01-25T11:34:46;99063.25;;;17.14;53.18
55418;BME280;41287;47.554;7.844;2023-01-25T11:37:25;99065.94;;;17.14;52.95
55418;BME280;41287;47.554;7.844;2023-01-25T11:40:05;99060.53;;;17.14;52.83
55418;BME280;41287;47.554;7.844;2023-01-25T11:42:56;99053.22;;;17.15;53.02
55418;BME280;41287;47.554;7.844;2023-01-25T11:45:46;99058.34;;;17.16;52.92
55418;BME280;41287;47.554;7.844;2023-01-25T11:48:44;99056.72;;;17.15;52.63
55418;BME280;41287;47.554;7.844;2023-01-25T11:59:16;99045.59;;;17.17;52.73
55418;BME280;41287;47.554;7.844;2023-01-25T12:12:53;99023.13;;;17.16;52.52
55418;BME280;41287;47.554;7.844;2023-01-25T12:20:55;99005.50;;;17.19;52.54
55418;BME280;41287;47.554;7.844;2023-01-25T12:26:14;98998.16;;;17.19;52.16
55418;BME280;41287;47.554;7.844;2023-01-25T12:28:47;98996.22;;;17.20;52.30
55418;BME280;41287;47.554;7.844;2023-01-25T12:31:22;98996.22;;;17.20;52.23
55418;BME280;41287;47.554;7.844;2023-01-25T12:33:58;98994.31;;;17.20;52.42
55418;BME280;41287;47.554;7.844;2023-01-25T12:36:30;98987.81;;;17.21;52.40
55418;BME280;41287;47.554;7.844;2023-01-25T12:39:24;98980.78;;;17.20;52.18
55418;BME280;41287;47.554;7.844;2023-01-25T12:42:16;98975.88;;;17.22;52.36
55418;BME280;41287;47.554;7.844;2023-01-25T12:44:44;98973.16;;;17.22;52.19
55418;BME280;41287;47.554;7.844;2023-01-25T12:47:31;98969.34;;;17.23;52.34
55418;BME280;41287;47.554;7.844;2023-01-25T12:50:11;98958.81;;;17.22;52.07
55418;BME280;41287;47.554;7.844;2023-01-25T12:52:48;98955.81;;;17.23;52.09
55418;BME280;41287;47.554;7.844;2023-01-25T12:55:16;98956.31;;;17.25;52.09
55418;BME280;41287;47.554;7.844;2023-01-25T13:00:35;98958.22;;;17.25;51.96
55418;BME280;41287;47.554;7.844;2023-01-25T13:06:16;98942.78;;;17.25;51.94
55418;BME280;41287;47.554;7.844;2023-01-25T13:08:52;98937.38;;;17.25;52.04
55418;BME280;41287;47.554;7.844;2023-01-25T13:11:31;98938.16;;;17.26;51.95
55418;BME280;41287;47.554;7.844;2023-01-25T13:16:45;98926.22;;;17.27;52.14
55418;BME280;41287;47.554;7.844;2023-01-25T13:19:40;98924.31;;;17.27;51.87
55418;BME280;41287;47.554;7.844;2023-01-25T13:22:11;98919.69;;;17.28;51.91
55418;BME280;41287;47.554;7.844;2023-01-25T13:27:32;98921.00;;;17.30;51.82
55418;BME280;41287;47.554;7.844;2023-01-25T13:30:50;98928.31;;;17.30;51.90
55418;BME280;41287;47.554;7.844;2023-01-25T13:35:37;98909.34;;;17.30;51.63
55418;BME280;41287;47.554;7.844;2023-01-25T13:38:05;98919.91;;;17.31;51.72
55418;BME280;41287;47.554;7.844;2023-01-25T13:41:04;98910.97;;;17.31;51.69
55418;BME280;41287;47.554;7.844;2023-01-25T13:43:40;98910.66;;;17.32;51.67
55418;BME280;41287;47.554;7.844;2023-01-25T13:46:12;98907.97;;;17.32;51.63
55418;BME280;41287;47.554;7.844;2023-01-25T13:48:51;98905.25;;;17.32;51.38
55418;BME280;41287;47.554;7.844;2023-01-25T13:51:18;98908.44;;;17.34;51.59
55418;BME280;41287;47.554;7.844;2023-01-25T13:53:54;98906.06;;;17.33;51.63
55418;BME280;41287;47.554;7.844;2023-01-25T13:56:26;98911.16;;;17.34;51.36
55418;BME280;41287;47.554;7.844;2023-01-25T13:58:51;98905.72;;;17.34;51.48
55418;BME280;41287;47.554;7.844;2023-01-25T14:01:19;98906.53;;;17.35;51.75
55418;BME280;41287;47.554;7.844;2023-01-25T14:03:55;98904.63;;;17.35;51.66
55418;BME280;41287;47.554;7.844;2023-01-25T14:06:24;98907.03;;;17.37;51.61
55418;BME280;41287;47.554;7.844;2023-01-25T14:08:52;98905.94;;;17.38;51.60
55418;BME280;41287;47.554;7.844;2023-01-25T14:11:29;98906.75;;;17.38;51.43
55418;BME280;41287;47.554;7.844;2023-01-25T14:14:01;98906.41;;;17.40;51.48
55418;BME280;41287;47.554;7.844;2023-01-25T14:16:28;98898.28;;;17.40;51.45
55418;BME280;41287;47.554;7.844;2023-01-25T14:18:56;98901.00;;;17.40;51.56
55418;BME280;41287;47.554;7.844;2023-01-25T14:21:22;98893.66;;;17.41;51.39
55418;BME280;41287;47.554;7.844;2023-01-25T14:23:48;98893.38;;;17.42;51.56
55418;BME280;41287;47.554;7.844;2023-01-25T14:26:26;98894.81;;;17.40;51.48